sensor_id;sensor_type;location;lat;lon;timestamp;pressure;altitude;pressure_sealevel;temperature;humidity
57572;BME280;44459;43.522;24.470;2022-10-31T00:00:29;100608.66;;;13.56;68.87
57572;BME280;44459;43.522;24.470;2022-10-31T00:02:54;100614.84;;;13.53;69.09
57572;BME280;44459;43.522;24.470;2022-10-31T00:05:19;100606.88;;;13.46;69.35
57572;BME280;44459;43.522;24.470;2022-10-31T00:07:45;100590.97;;;13.35;69.55
57572;BME280;44459;43.522;24.470;2022-10-31T00:10:10;100607.72;;;13.30;69.89
57572;BME280;44459;43.522;24.470;2022-10-31T00:12:36;100591.81;;;13.21;70.15
57572;BME280;44459;43.522;24.470;2022-10-31T00:15:01;100587.41;;;13.20;70.22
57572;BME280;44459;43.522;24.470;2022-10-31T00:17:26;100598.00;;;13.20;70.37
57572;BME280;44459;43.522;24.470;2022-10-31T00:19:52;100595.34;;;13.17;70.70
57572;BME280;44459;43.522;24.470;2022-10-31T00:22:17;100597.13;;;13.16;70.81
57572;BME280;44459;43.522;24.470;2022-10-31T00:24:43;100602.44;;;13.21;70.90
57572;BME280;44459;43.522;24.470;2022-10-31T00:27:08;100590.06;;;13.18;70.96
57572;BME280;44459;43.522;24.470;2022-10-31T00:29:34;100603.31;;;13.21;70.72
57572;BME280;44459;43.522;24.470;2022-10-31T00:31:59;100598.00;;;13.23;70.58
57572;BME280;44459;43.522;24.470;2022-10-31T00:34:24;100605.09;;;13.28;70.51
57572;BME280;44459;43.522;24.470;2022-10-31T00:36:50;100605.13;;;13.33;70.23
57572;BME280;44459;43.522;24.470;2022-10-31T00:39:15;100603.34;;;13.35;70.33
57572;BME280;44459;43.522;24.470;2022-10-31T00:41:41;100604.22;;;13.35;70.09
57572;BME280;44459;43.522;24.470;2022-10-31T00:44:06;100605.13;;;13.36;70.32
57572;BME280;44459;43.522;24.470;2022-10-31T00:46:32;100597.16;;;13.39;70.44
57572;BME280;44459;43.522;24.470;2022-10-31T00:48:57;100597.16;;;13.39;70.21
57572;BME280;44459;43.522;24.470;2022-10-31T00:51:23;100594.50;;;13.39;70.70
57572;BME280;44459;43.522;24.470;2022-10-31T00:53:48;100609.53;;;13.44;70.84
57572;BME280;44459;43.522;24.470;2022-10-31T00:56:13;100609.53;;;13.46;70.79
57572;BME280;44459;43.522;24.470;2022-10-31T00:58:39;100628.09;;;13.49;70.37
57572;BME280;44459;43.522;24.470;2022-10-31T01:01:04;100618.38;;;13.49;70.52
57572;BME280;44459;43.522;24.470;2022-10-31T01:03:32;100611.28;;;13.48;70.86
57572;BME280;44459;43.522;24.470;2022-10-31T01:08:28;100617.47;;;13.52;70.88
57572;BME280;44459;43.522;24.470;2022-10-31T01:11:19;100615.69;;;13.54;71.01
57572;BME280;44459;43.522;24.470;2022-10-31T01:13:45;100613.97;;;13.56;71.19
57572;BME280;44459;43.522;24.470;2022-10-31T01:16:14;100616.59;;;13.56;71.07
57572;BME280;44459;43.522;24.470;2022-10-31T01:18:40;100613.97;;;13.56;71.25
57572;BME280;44459;43.522;24.470;2022-10-31T01:21:09;100610.41;;;13.60;71.87
57572;BME280;44459;43.522;24.470;2022-10-31T01:23:35;100613.06;;;13.63;71.47
57572;BME280;44459;43.522;24.470;2022-10-31T01:28:36;100621.91;;;13.59;71.00
57572;BME280;44459;43.522;24.470;2022-10-31T01:31:04;100626.31;;;13.54;71.24
57572;BME280;44459;43.522;24.470;2022-10-31T01:33:30;100627.19;;;13.51;71.05
57572;BME280;44459;43.522;24.470;2022-10-31T01:35:56;100625.47;;;13.53;71.44
57572;BME280;44459;43.522;24.470;2022-10-31T01:38:21;100621.03;;;13.49;71.07
57572;BME280;44459;43.522;24.470;2022-10-31T01:40:48;100628.97;;;13.48;71.49
57572;BME280;44459;43.522;24.470;2022-10-31T01:43:13;100622.75;;;13.40;71.57
57572;BME280;44459;43.522;24.470;2022-10-31T01:45:43;100628.97;;;13.37;71.66
57572;BME280;44459;43.522;24.470;2022-10-31T01:48:15;100626.31;;;13.36;71.71
57572;BME280;44459;43.522;24.470;2022-10-31T01:50:43;100627.19;;;13.32;71.90
57572;BME280;44459;43.522;24.470;2022-10-31T01:53:12;100630.72;;;13.25;72.02
57572;BME280;44459;43.522;24.470;2022-10-31T01:55:44;100640.44;;;13.21;72.10
57572;BME280;44459;43.522;24.470;2022-10-31T01:58:14;100639.53;;;13.12;72.07
57572;BME280;44459;43.522;24.470;2022-10-31T02:00:42;100634.19;;;13.04;72.13
57572;BME280;44459;43.522;24.470;2022-10-31T02:03:08;100631.50;;;12.93;72.46
57572;BME280;44459;43.522;24.470;2022-10-31T02:05:35;100642.09;;;12.93;72.74
57572;BME280;44459;43.522;24.470;2022-10-31T02:08:28;100650.03;;;12.87;73.28
57572;BME280;44459;43.522;24.470;2022-10-31T02:10:55;100653.53;;;12.77;73.45
57572;BME280;44459;43.522;24.470;2022-10-31T02:13:22;100655.25;;;12.68;73.81
57572;BME280;44459;43.522;24.470;2022-10-31T02:15:52;100650.81;;;12.59;73.79
57572;BME280;44459;43.522;24.470;2022-10-31T02:18:18;100653.41;;;12.53;73.59
57572;BME280;44459;43.522;24.470;2022-10-31T02:26:15;100660.34;;;12.33;74.17
57572;BME280;44459;43.522;24.470;2022-10-31T02:34:21;100661.13;;;12.14;75.22
57572;BME280;44459;43.522;24.470;2022-10-31T02:37:12;100659.28;;;12.05;75.59
57572;BME280;44459;43.522;24.470;2022-10-31T02:40:10;100659.28;;;11.97;75.94
57572;BME280;44459;43.522;24.470;2022-10-31T02:42:55;100667.13;;;11.91;75.84
57572;BME280;44459;43.522;24.470;2022-10-31T02:45:30;100658.22;;;11.80;76.66
57572;BME280;44459;43.522;24.470;2022-10-31T02:48:03;100665.22;;;11.74;77.34
57572;BME280;44459;43.522;24.470;2022-10-31T02:50:34;100668.63;;;11.63;77.23
57572;BME280;44459;43.522;24.470;2022-10-31T02:53:02;100671.25;;;11.57;77.26
57572;BME280;44459;43.522;24.470;2022-10-31T02:58:07;100668.50;;;11.47;77.88
57572;BME280;44459;43.522;24.470;2022-10-31T03:00:45;100664.84;;;11.36;78.68
57572;BME280;44459;43.522;24.470;2022-10-31T03:03:22;100661.31;;;11.31;79.09
57572;BME280;44459;43.522;24.470;2022-10-31T03:05:55;100662.94;;;11.21;79.01
57572;BME280;44459;43.522;24.470;2022-10-31T03:11:08;100662.09;;;11.21;79.03
57572;BME280;44459;43.522;24.470;2022-10-31T03:13:48;100662.94;;;11.20;79.22
57572;BME280;44459;43.522;24.470;2022-10-31T03:19:08;100668.22;;;11.21;79.28
57572;BME280;44459;43.522;24.470;2022-10-31T03:21:42;100671.78;;;11.23;78.85
57572;BME280;44459;43.522;24.470;2022-10-31T03:24:10;100667.38;;;11.21;78.64
57572;BME280;44459;43.522;24.470;2022-10-31T03:26:38;100670.84;;;11.17;78.17
57572;BME280;44459;43.522;24.470;2022-10-31T03:29:06;100670.78;;;11.12;78.38
57572;BME280;44459;43.522;24.470;2022-10-31T03:31:40;100676.91;;;11.08;78.25
57572;BME280;44459;43.522;24.470;2022-10-31T03:34:08;100672.44;;;11.02;78.21
57572;BME280;44459;43.522;24.470;2022-10-31T03:36:37;100681.16;;;10.97;78.13
57572;BME280;44459;43.522;24.470;2022-10-31T03:39:07;100684.53;;;10.82;78.10
57572;BME280;44459;43.522;24.470;2022-10-31T03:41:39;100684.41;;;10.73;78.64
57572;BME280;44459;43.522;24.470;2022-10-31T03:44:09;100687.84;;;10.66;79.44
57572;BME280;44459;43.522;24.470;2022-10-31T03:46:36;100684.25;;;10.63;79.19
57572;BME280;44459;43.522;24.470;2022-10-31T03:49:02;100696.63;;;10.65;79.09
57572;BME280;44459;43.522;24.470;2022-10-31T03:51:45;100701.00;;;10.62;79.29
57572;BME280;44459;43.522;24.470;2022-10-31T03:54:25;100697.44;;;10.58;79.69
57572;BME280;44459;43.522;24.470;2022-10-31T03:56:56;100696.50;;;10.54;79.86
57572;BME280;44459;43.522;24.470;2022-10-31T03:59:30;100691.19;;;10.53;80.33
57572;BME280;44459;43.522;24.470;2022-10-31T04:02:00;100692.00;;;10.49;80.27
57572;BME280;44459;43.522;24.470;2022-10-31T04:04:28;100692.00;;;10.47;80.22
57572;BME280;44459;43.522;24.470;2022-10-31T04:06:56;100687.47;;;10.39;81.12
57572;BME280;44459;43.522;24.470;2022-10-31T04:09:26;100691.84;;;10.38;81.74
57572;BME280;44459;43.522;24.470;2022-10-31T04:11:54;100695.47;;;10.43;81.82
57572;BME280;44459;43.522;24.470;2022-10-31T04:14:24;100691.94;;;10.43;81.66
57572;BME280;44459;43.522;24.470;2022-10-31T04:16:50;100697.16;;;10.41;81.53
57572;BME280;44459;43.522;24.470;2022-10-31T04:19:16;100695.38;;;10.39;81.41
57572;BME280;44459;43.522;24.470;2022-10-31T04:21:42;100700.63;;;10.34;81.37
57572;BME280;44459;43.522;24.470;2022-10-31T04:24:09;100709.41;;;10.35;81.50
57572;BME280;44459;43.522;24.470;2022-10-31T04:26:34;100703.22;;;10.33;82.22
57572;BME280;44459;43.522;24.470;2022-10-31T04:29:00;100711.09;;;10.31;82.03
57572;BME280;44459;43.522;24.470;2022-10-31T04:31:25;100705.78;;;10.28;81.86
57572;BME280;44459;43.522;24.470;2022-10-31T04:33:51;100703.13;;;10.27;82.02
57572;BME280;44459;43.522;24.470;2022-10-31T04:36:16;100701.31;;;10.24;81.89
57572;BME280;44459;43.522;24.470;2022-10-31T04:38:42;100705.69;;;10.22;81.86
57572;BME280;44459;43.522;24.470;2022-10-31T04:41:07;100709.03;;;10.13;82.19
57572;BME280;44459;43.522;24.470;2022-10-31T04:43:32;100709.84;;;10.08;82.19
57572;BME280;44459;43.522;24.470;2022-10-31T04:45:58;100716.91;;;10.09;82.19
57572;BME280;44459;43.522;24.470;2022-10-31T04:48:24;100720.38;;;10.08;82.53
57572;BME280;44459;43.522;24.470;2022-10-31T04:50:49;100717.78;;;10.09;82.93
57572;BME280;44459;43.522;24.470;2022-10-31T04:53:15;100726.72;;;10.16;83.33
57572;BME280;44459;43.522;24.470;2022-10-31T04:55:40;100721.50;;;10.19;83.11
57572;BME280;44459;43.522;24.470;2022-10-31T04:58:06;100716.09;;;10.13;83.31
57572;BME280;44459;43.522;24.470;2022-10-31T05:00:31;100717.06;;;10.18;83.21
57572;BME280;44459;43.522;24.470;2022-10-31T05:02:57;100723.31;;;10.25;83.37
57572;BME280;44459;43.522;24.470;2022-10-31T05:05:25;100731.34;;;10.31;83.49
57572;BME280;44459;43.522;24.470;2022-10-31T05:07:52;100725.22;;;10.33;83.23
57572;BME280;44459;43.522;24.470;2022-10-31T05:10:20;100731.47;;;10.40;83.37
57572;BME280;44459;43.522;24.470;2022-10-31T05:12:51;100732.47;;;10.48;83.25
57572;BME280;44459;43.522;24.470;2022-10-31T05:15:18;100728.19;;;10.54;83.10
57572;BME280;44459;43.522;24.470;2022-10-31T05:17:44;100736.97;;;10.55;83.04
57572;BME280;44459;43.522;24.470;2022-10-31T05:20:13;100742.34;;;10.61;82.82
57572;BME280;44459;43.522;24.470;2022-10-31T05:22:42;100741.53;;;10.65;82.48
57572;BME280;44459;43.522;24.470;2022-10-31T05:25:08;100736.28;;;10.70;82.24
57572;BME280;44459;43.522;24.470;2022-10-31T05:27:34;100736.34;;;10.74;82.12
57572;BME280;44459;43.522;24.470;2022-10-31T05:29:59;100741.72;;;10.80;81.98
57572;BME280;44459;43.522;24.470;2022-10-31T05:32:25;100753.19;;;10.84;82.15
57572;BME280;44459;43.522;24.470;2022-10-31T05:34:50;100756.78;;;10.87;82.03
57572;BME280;44459;43.522;24.470;2022-10-31T05:37:15;100756.81;;;10.90;82.07
57572;BME280;44459;43.522;24.470;2022-10-31T05:39:41;100753.38;;;10.97;82.01
57572;BME280;44459;43.522;24.470;2022-10-31T05:42:06;100766.69;;;11.03;81.98
57572;BME280;44459;43.522;24.470;2022-10-31T05:44:32;100770.25;;;11.08;81.46
57572;BME280;44459;43.522;24.470;2022-10-31T05:46:57;100763.25;;;11.12;81.38
57572;BME280;44459;43.522;24.470;2022-10-31T05:49:22;100772.16;;;11.17;80.42
57572;BME280;44459;43.522;24.470;2022-10-31T05:51:48;100767.78;;;11.21;79.91
57572;BME280;44459;43.522;24.470;2022-10-31T05:54:13;100767.81;;;11.25;80.12
57572;BME280;44459;43.522;24.470;2022-10-31T05:56:39;100763.47;;;11.32;80.03
57572;BME280;44459;43.522;24.470;2022-10-31T05:59:04;100756.53;;;11.38;79.42
57572;BME280;44459;43.522;24.470;2022-10-31T06:01:29;100756.50;;;11.37;79.50
57572;BME280;44459;43.522;24.470;2022-10-31T06:03:55;100764.63;;;11.56;79.87
57572;BME280;44459;43.522;24.470;2022-10-31T06:06:20;100779.78;;;11.70;80.04
57572;BME280;44459;43.522;24.470;2022-10-31T06:08:46;100780.81;;;11.82;79.58
57572;BME280;44459;43.522;24.470;2022-10-31T06:11:11;100784.44;;;11.92;79.53
57572;BME280;44459;43.522;24.470;2022-10-31T06:13:37;100778.41;;;12.08;79.53
57572;BME280;44459;43.522;24.470;2022-10-31T06:16:02;100781.13;;;12.16;79.10
57572;BME280;44459;43.522;24.470;2022-10-31T06:18:28;100781.28;;;12.35;78.42
57572;BME280;44459;43.522;24.470;2022-10-31T06:20:53;100774.28;;;12.45;78.60
57572;BME280;44459;43.522;24.470;2022-10-31T06:23:18;100782.31;;;12.60;78.08
57572;BME280;44459;43.522;24.470;2022-10-31T06:25:48;100792.16;;;12.73;77.87
57572;BME280;44459;43.522;24.470;2022-10-31T06:28:14;100789.56;;;12.84;77.08
57572;BME280;44459;43.522;24.470;2022-10-31T06:30:39;100786.97;;;12.96;76.79
57572;BME280;44459;43.522;24.470;2022-10-31T06:33:05;100792.38;;;13.11;76.58
57572;BME280;44459;43.522;24.470;2022-10-31T06:35:31;100787.16;;;13.25;76.15
57572;BME280;44459;43.522;24.470;2022-10-31T06:37:56;100788.94;;;13.36;76.24
57572;BME280;44459;43.522;24.470;2022-10-31T06:40:22;100791.66;;;13.54;75.59
57572;BME280;44459;43.522;24.470;2022-10-31T06:42:58;100785.50;;;13.69;75.32
57572;BME280;44459;43.522;24.470;2022-10-31T06:45:24;100798.81;;;13.86;74.85
57572;BME280;44459;43.522;24.470;2022-10-31T06:47:54;100801.50;;;14.01;74.39
57572;BME280;44459;43.522;24.470;2022-10-31T06:50:20;100806.81;;;14.22;73.38
57572;BME280;44459;43.522;24.470;2022-10-31T06:52:53;100811.28;;;14.40;73.21
57572;BME280;44459;43.522;24.470;2022-10-31T06:55:19;100815.72;;;14.53;72.17
57572;BME280;44459;43.522;24.470;2022-10-31T06:57:55;100816.56;;;14.75;71.06
57572;BME280;44459;43.522;24.470;2022-10-31T07:00:22;100820.06;;;14.96;70.52
57572;BME280;44459;43.522;24.470;2022-10-31T07:02:54;100808.47;;;15.14;69.39
57572;BME280;44459;43.522;24.470;2022-10-31T07:05:19;100796.03;;;15.27;68.76
57572;BME280;44459;43.522;24.470;2022-10-31T07:07:45;100803.06;;;15.40;68.47
57572;BME280;44459;43.522;24.470;2022-10-31T07:10:10;100810.16;;;15.51;68.18
57572;BME280;44459;43.522;24.470;2022-10-31T07:12:36;100804.72;;;15.70;67.37
57572;BME280;44459;43.522;24.470;2022-10-31T07:15:01;100811.75;;;15.86;66.37
57572;BME280;44459;43.522;24.470;2022-10-31T07:17:26;100805.41;;;16.00;66.36
57572;BME280;44459;43.522;24.470;2022-10-31T07:19:52;100796.47;;;16.10;64.90
57572;BME280;44459;43.522;24.470;2022-10-31T07:22:17;100791.94;;;16.23;65.21
57572;BME280;44459;43.522;24.470;2022-10-31T07:24:43;100798.94;;;16.36;65.00
57572;BME280;44459;43.522;24.470;2022-10-31T07:27:08;100798.88;;;16.42;64.42
57572;BME280;44459;43.522;24.470;2022-10-31T07:29:33;100803.22;;;16.58;64.29
57572;BME280;44459;43.522;24.470;2022-10-31T07:31:59;100801.31;;;16.70;63.44
57572;BME280;44459;43.522;24.470;2022-10-31T07:34:25;100809.16;;;16.86;63.15
57572;BME280;44459;43.522;24.470;2022-10-31T07:36:51;100807.28;;;16.94;62.79
57572;BME280;44459;43.522;24.470;2022-10-31T07:39:17;100805.31;;;17.11;62.68
57572;BME280;44459;43.522;24.470;2022-10-31T07:41:42;100798.16;;;17.17;62.25
57572;BME280;44459;43.522;24.470;2022-10-31T07:44:07;100803.28;;;17.35;61.76
57572;BME280;44459;43.522;24.470;2022-10-31T07:46:33;100804.06;;;17.41;61.41
57572;BME280;44459;43.522;24.470;2022-10-31T07:48:58;100800.34;;;17.54;60.96
57572;BME280;44459;43.522;24.470;2022-10-31T07:51:24;100807.31;;;17.68;60.22
57572;BME280;44459;43.522;24.470;2022-10-31T07:53:49;100797.38;;;17.77;59.99
57572;BME280;44459;43.522;24.470;2022-10-31T07:56:15;100799.97;;;17.83;59.58
57572;BME280;44459;43.522;24.470;2022-10-31T07:58:40;100805.13;;;17.97;59.49
57572;BME280;44459;43.522;24.470;2022-10-31T08:01:06;100802.25;;;18.09;59.22
57572;BME280;44459;43.522;24.470;2022-10-31T08:03:31;100810.88;;;18.26;58.46
57572;BME280;44459;43.522;24.470;2022-10-31T08:05:56;100800.19;;;18.28;58.47
57572;BME280;44459;43.522;24.470;2022-10-31T08:08:22;100803.50;;;18.42;57.51
57572;BME280;44459;43.522;24.470;2022-10-31T08:10:49;100802.63;;;18.41;57.98
57572;BME280;44459;43.522;24.470;2022-10-31T08:13:14;100811.47;;;18.46;57.23
57572;BME280;44459;43.522;24.470;2022-10-31T08:15:40;100799.81;;;18.52;57.20
57572;BME280;44459;43.522;24.470;2022-10-31T08:18:11;100800.50;;;18.62;57.60
57572;BME280;44459;43.522;24.470;2022-10-31T08:20:38;100804.06;;;18.62;57.28
57572;BME280;44459;43.522;24.470;2022-10-31T08:23:04;100807.44;;;18.73;57.12
57572;BME280;44459;43.522;24.470;2022-10-31T08:25:33;100805.69;;;18.72;56.99
57572;BME280;44459;43.522;24.470;2022-10-31T08:27:58;100804.59;;;18.82;56.85
57572;BME280;44459;43.522;24.470;2022-10-31T08:30:26;100798.22;;;18.89;56.81
57572;BME280;44459;43.522;24.470;2022-10-31T08:33:05;100805.16;;;19.01;56.88
57572;BME280;44459;43.522;24.470;2022-10-31T08:35:32;100803.16;;;19.10;55.37
57572;BME280;44459;43.522;24.470;2022-10-31T08:37:58;100812.09;;;19.09;54.92
57572;BME280;44459;43.522;24.470;2022-10-31T08:40:25;100807.72;;;19.05;55.26
57572;BME280;44459;43.522;24.470;2022-10-31T08:43:20;100803.22;;;19.07;54.51
57572;BME280;44459;43.522;24.470;2022-10-31T08:45:48;100804.59;;;19.27;54.78
57572;BME280;44459;43.522;24.470;2022-10-31T08:48:16;100802.41;;;19.48;54.18
57572;BME280;44459;43.522;24.470;2022-10-31T08:50:43;100805.69;;;19.61;53.94
57572;BME280;44459;43.522;24.470;2022-10-31T08:53:15;100816.16;;;19.73;53.04
57572;BME280;44459;43.522;24.470;2022-10-31T08:55:41;100811.72;;;19.72;53.37
57572;BME280;44459;43.522;24.470;2022-10-31T08:58:11;100814.44;;;19.71;53.33
57572;BME280;44459;43.522;24.470;2022-10-31T09:00:37;100812.59;;;19.74;53.61
57572;BME280;44459;43.522;24.470;2022-10-31T09:03:05;100812.38;;;19.83;53.23
57572;BME280;44459;43.522;24.470;2022-10-31T09:05:31;100811.31;;;19.90;53.46
57572;BME280;44459;43.522;24.470;2022-10-31T09:08:00;100804.91;;;19.96;52.75
57572;BME280;44459;43.522;24.470;2022-10-31T09:10:28;100800.41;;;19.98;52.34
57572;BME280;44459;43.522;24.470;2022-10-31T09:13:02;100801.31;;;19.98;51.99
57572;BME280;44459;43.522;24.470;2022-10-31T09:15:32;100798.50;;;20.03;52.55
57572;BME280;44459;43.522;24.470;2022-10-31T09:17:58;100791.41;;;20.00;51.92
57572;BME280;44459;43.522;24.470;2022-10-31T09:20:24;100794.97;;;20.02;52.30
57572;BME280;44459;43.522;24.470;2022-10-31T09:25:28;100792.22;;;20.04;52.06
57572;BME280;44459;43.522;24.470;2022-10-31T09:27:58;100790.44;;;20.04;51.73
57572;BME280;44459;43.522;24.470;2022-10-31T09:30:23;100798.41;;;20.07;51.19
57572;BME280;44459;43.522;24.470;2022-10-31T09:32:55;100785.06;;;20.06;51.71
57572;BME280;44459;43.522;24.470;2022-10-31T09:35:20;100784.97;;;20.09;51.16
57572;BME280;44459;43.522;24.470;2022-10-31T09:37:45;100783.94;;;20.15;51.39
57572;BME280;44459;43.522;24.470;2022-10-31T09:40:11;100788.25;;;20.20;51.03
57572;BME280;44459;43.522;24.470;2022-10-31T09:43:01;100780.06;;;20.28;50.88
57572;BME280;44459;43.522;24.470;2022-10-31T09:48:09;100777.09;;;20.40;50.84
57572;BME280;44459;43.522;24.470;2022-10-31T09:50:44;100776.84;;;20.49;51.03
57572;BME280;44459;43.522;24.470;2022-10-31T09:56:11;100779.13;;;20.64;49.86
57572;BME280;44459;43.522;24.470;2022-10-31T09:58:44;100772.72;;;20.70;50.14
57572;BME280;44459;43.522;24.470;2022-10-31T10:07:32;100767.56;;;20.94;49.79
57572;BME280;44459;43.522;24.470;2022-10-31T10:10:05;100771.00;;;20.99;49.68
57572;BME280;44459;43.522;24.470;2022-10-31T10:18:08;100754.31;;;21.21;48.42
57572;BME280;44459;43.522;24.470;2022-10-31T10:23:35;100746.50;;;21.42;48.11
57572;BME280;44459;43.522;24.470;2022-10-31T10:26:13;100746.03;;;21.57;47.72
57572;BME280;44459;43.522;24.470;2022-10-31T10:28:43;100742.16;;;21.66;47.70
57572;BME280;44459;43.522;24.470;2022-10-31T10:31:13;100746.94;;;21.86;47.27
57572;BME280;44459;43.522;24.470;2022-10-31T10:34:01;100748.19;;;22.03;47.83
57572;BME280;44459;43.522;24.470;2022-10-31T10:36:38;100750.34;;;22.19;46.49
57572;BME280;44459;43.522;24.470;2022-10-31T10:39:16;100739.34;;;22.26;45.48
57572;BME280;44459;43.522;24.470;2022-10-31T10:41:47;100738.00;;;22.39;45.87
57572;BME280;44459;43.522;24.470;2022-10-31T10:44:34;100740.31;;;22.50;46.82
57572;BME280;44459;43.522;24.470;2022-10-31T10:47:21;100729.25;;;22.59;45.87
57572;BME280;44459;43.522;24.470;2022-10-31T10:52:43;100738.56;;;22.75;45.18
57572;BME280;44459;43.522;24.470;2022-10-31T10:57:53;100729.59;;;22.75;44.32
57572;BME280;44459;43.522;24.470;2022-10-31T11:00:30;100729.09;;;22.88;44.68
57572;BME280;44459;43.522;24.470;2022-10-31T11:02:56;100729.75;;;22.95;44.01
57572;BME280;44459;43.522;24.470;2022-10-31T11:05:36;100731.47;;;22.97;43.54
57572;BME280;44459;43.522;24.470;2022-10-31T11:08:03;100725.13;;;22.98;44.09
57572;BME280;44459;43.522;24.470;2022-10-31T11:10:30;100719.75;;;22.98;44.12
57572;BME280;44459;43.522;24.470;2022-10-31T11:13:22;100720.19;;;23.11;43.63
57572;BME280;44459;43.522;24.470;2022-10-31T11:16:06;100723.41;;;23.21;43.74
57572;BME280;44459;43.522;24.470;2022-10-31T11:18:44;100714.41;;;23.22;43.46
57572;BME280;44459;43.522;24.470;2022-10-31T11:21:27;100704.66;;;23.18;43.62
57572;BME280;44459;43.522;24.470;2022-10-31T11:26:34;100703.00;;;23.37;43.34
57572;BME280;44459;43.522;24.470;2022-10-31T11:29:00;100700.84;;;23.46;44.27
57572;BME280;44459;43.522;24.470;2022-10-31T11:31:28;100700.69;;;23.51;43.49
57572;BME280;44459;43.522;24.470;2022-10-31T11:34:03;100708.31;;;23.63;43.95
57572;BME280;44459;43.522;24.470;2022-10-31T11:36:35;100695.63;;;23.65;42.88
57572;BME280;44459;43.522;24.470;2022-10-31T11:39:03;100705.28;;;23.71;42.52
57572;BME280;44459;43.522;24.470;2022-10-31T11:41:32;100706.66;;;23.59;42.13
57572;BME280;44459;43.522;24.470;2022-10-31T11:43:59;100696.91;;;23.57;42.57
57572;BME280;44459;43.522;24.470;2022-10-31T11:46:41;100698.63;;;23.58;42.50
57572;BME280;44459;43.522;24.470;2022-10-31T11:49:17;100695.00;;;23.59;42.21
57572;BME280;44459;43.522;24.470;2022-10-31T11:51:48;100692.25;;;23.60;42.37
57572;BME280;44459;43.522;24.470;2022-10-31T11:54:21;100694.25;;;23.55;42.20
57572;BME280;44459;43.522;24.470;2022-10-31T11:56:47;100688.56;;;23.63;43.00
57572;BME280;44459;43.522;24.470;2022-10-31T12:01:51;100683.16;;;23.63;41.75
57572;BME280;44459;43.522;24.470;2022-10-31T12:04:17;100674.31;;;23.59;42.31
57572;BME280;44459;43.522;24.470;2022-10-31T12:06:44;100681.41;;;23.62;42.30
57572;BME280;44459;43.522;24.470;2022-10-31T12:09:29;100678.66;;;23.63;42.32
57572;BME280;44459;43.522;24.470;2022-10-31T12:15:07;100679.59;;;23.62;41.97
57572;BME280;44459;43.522;24.470;2022-10-31T12:17:49;100680.50;;;23.61;41.67
57572;BME280;44459;43.522;24.470;2022-10-31T12:22:59;100672.72;;;23.53;42.10
57572;BME280;44459;43.522;24.470;2022-10-31T12:38:43;100668.31;;;23.52;42.04
57572;BME280;44459;43.522;24.470;2022-10-31T12:41:21;100668.84;;;23.61;42.01
57572;BME280;44459;43.522;24.470;2022-10-31T12:44:09;100666.59;;;23.72;42.02
57572;BME280;44459;43.522;24.470;2022-10-31T12:57:23;100670.53;;;23.85;41.76
57572;BME280;44459;43.522;24.470;2022-10-31T13:00:04;100667.84;;;23.85;41.51
57572;BME280;44459;43.522;24.470;2022-10-31T13:02:35;100664.28;;;23.84;41.55
57572;BME280;44459;43.522;24.470;2022-10-31T13:05:14;100673.19;;;23.86;41.66
57572;BME280;44459;43.522;24.470;2022-10-31T13:10:36;100669.44;;;23.90;41.19
57572;BME280;44459;43.522;24.470;2022-10-31T13:13:16;100670.97;;;23.96;41.17
57572;BME280;44459;43.522;24.470;2022-10-31T13:15:56;100669.97;;;23.98;41.32
57572;BME280;44459;43.522;24.470;2022-10-31T13:18:28;100665.72;;;23.93;41.00
57572;BME280;44459;43.522;24.470;2022-10-31T13:20:58;100672.25;;;23.87;41.00
57572;BME280;44459;43.522;24.470;2022-10-31T13:23:36;100674.44;;;23.78;40.66
57572;BME280;44459;43.522;24.470;2022-10-31T13:26:41;100675.94;;;23.85;41.06
57572;BME280;44459;43.522;24.470;2022-10-31T13:29:27;100665.91;;;23.88;41.68
57572;BME280;44459;43.522;24.470;2022-10-31T13:31:54;100669.44;;;23.90;40.87
57572;BME280;44459;43.522;24.470;2022-10-31T13:34:26;100673.75;;;23.94;40.45
57572;BME280;44459;43.522;24.470;2022-10-31T13:40:09;100664.28;;;23.84;41.10
57572;BME280;44459;43.522;24.470;2022-10-31T13:42:49;100666.34;;;23.78;40.58
57572;BME280;44459;43.522;24.470;2022-10-31T13:45:21;100660.00;;;23.79;40.62
57572;BME280;44459;43.522;24.470;2022-10-31T13:48:00;100661.38;;;23.89;40.70
57572;BME280;44459;43.522;24.470;2022-10-31T13:50:31;100660.41;;;23.91;41.57
57572;BME280;44459;43.522;24.470;2022-10-31T13:55:45;100653.28;;;23.89;41.14
57572;BME280;44459;43.522;24.470;2022-10-31T13:58:22;100666.59;;;23.93;40.83
57572;BME280;44459;43.522;24.470;2022-10-31T14:03:37;100669.28;;;23.93;40.68
57572;BME280;44459;43.522;24.470;2022-10-31T14:06:03;100663.56;;;24.23;40.12
57572;BME280;44459;43.522;24.470;2022-10-31T14:08:34;100667.31;;;25.20;39.17
57572;BME280;44459;43.522;24.470;2022-10-31T14:11:00;100661.50;;;26.19;36.92
57572;BME280;44459;43.522;24.470;2022-10-31T14:13:38;100653.72;;;26.80;36.03
57572;BME280;44459;43.522;24.470;2022-10-31T14:16:18;100654.75;;;27.28;34.88
57572;BME280;44459;43.522;24.470;2022-10-31T14:18:51;100656.69;;;27.41;34.69
57572;BME280;44459;43.522;24.470;2022-10-31T14:23:51;100659.75;;;27.67;34.96
57572;BME280;44459;43.522;24.470;2022-10-31T14:28:51;100662.72;;;27.31;34.84
57572;BME280;44459;43.522;24.470;2022-10-31T14:31:38;100658.22;;;26.64;35.12
57572;BME280;44459;43.522;24.470;2022-10-31T14:50:58;100658.34;;;23.76;41.96
57572;BME280;44459;43.522;24.470;2022-10-31T14:55:55;100654.81;;;23.29;43.31